sensor_id;sensor_type;location;lat;lon;timestamp;temperature;humidity
33827;DHT22;20128;45.582;5.298;2024-02-23T00:01:28;10.60;95.20
33827;DHT22;20128;45.582;5.298;2024-02-23T00:03:54;10.60;95.20
33827;DHT22;20128;45.582;5.298;2024-02-23T00:06:21;10.60;95.30
33827;DHT22;20128;45.582;5.298;2024-02-23T00:08:48;10.60;95.30
33827;DHT22;20128;45.582;5.298;2024-02-23T00:11:14;10.60;95.20
33827;DHT22;20128;45.582;5.298;2024-02-23T00:13:39;10.60;95.20
33827;DHT22;20128;45.582;5.298;2024-02-23T00:16:05;10.50;95.20
33827;DHT22;20128;45.582;5.298;2024-02-23T00:18:31;10.50;95.10
33827;DHT22;20128;45.582;5.298;2024-02-23T00:20:56;10.50;95.00
33827;DHT22;20128;45.582;5.298;2024-02-23T00:23:22;10.50;95.00
33827;DHT22;20128;45.582;5.298;2024-02-23T00:25:47;10.50;94.90
33827;DHT22;20128;45.582;5.298;2024-02-23T00:28:13;10.50;94.80
33827;DHT22;20128;45.582;5.298;2024-02-23T00:30:39;10.50;94.70
33827;DHT22;20128;45.582;5.298;2024-02-23T00:33:05;10.50;94.80
33827;DHT22;20128;45.582;5.298;2024-02-23T00:35:30;10.40;94.60
33827;DHT22;20128;45.582;5.298;2024-02-23T00:37:56;10.40;94.60
33827;DHT22;20128;45.582;5.298;2024-02-23T00:40:22;10.40;94.50
33827;DHT22;20128;45.582;5.298;2024-02-23T00:42:49;10.40;94.40
33827;DHT22;20128;45.582;5.298;2024-02-23T00:45:14;10.40;94.30
33827;DHT22;20128;45.582;5.298;2024-02-23T00:47:40;10.40;94.40
33827;DHT22;20128;45.582;5.298;2024-02-23T00:50:06;10.40;94.40
33827;DHT22;20128;45.582;5.298;2024-02-23T00:52:32;10.40;94.40
33827;DHT22;20128;45.582;5.298;2024-02-23T00:54:58;10.40;94.20
33827;DHT22;20128;45.582;5.298;2024-02-23T00:57:24;10.30;94.20
33827;DHT22;20128;45.582;5.298;2024-02-23T00:59:58;10.30;94.20
33827;DHT22;20128;45.582;5.298;2024-02-23T01:02:23;10.30;94.00
33827;DHT22;20128;45.582;5.298;2024-02-23T01:04:49;10.30;93.90
33827;DHT22;20128;45.582;5.298;2024-02-23T01:07:15;10.30;93.70
33827;DHT22;20128;45.582;5.298;2024-02-23T01:09:40;10.30;93.50
33827;DHT22;20128;45.582;5.298;2024-02-23T01:12:06;10.20;93.80
33827;DHT22;20128;45.582;5.298;2024-02-23T01:14:32;10.20;93.50
33827;DHT22;20128;45.582;5.298;2024-02-23T01:16:57;10.20;93.50
33827;DHT22;20128;45.582;5.298;2024-02-23T01:19:23;10.10;93.60
33827;DHT22;20128;45.582;5.298;2024-02-23T01:21:49;10.10;93.60
33827;DHT22;20128;45.582;5.298;2024-02-23T01:24:22;10.10;93.60
33827;DHT22;20128;45.582;5.298;2024-02-23T01:26:47;10.00;93.60
33827;DHT22;20128;45.582;5.298;2024-02-23T01:29:13;10.00;93.50
33827;DHT22;20128;45.582;5.298;2024-02-23T01:31:38;10.10;93.40
33827;DHT22;20128;45.582;5.298;2024-02-23T01:34:04;10.00;93.30
33827;DHT22;20128;45.582;5.298;2024-02-23T01:36:29;10.00;92.40
33827;DHT22;20128;45.582;5.298;2024-02-23T01:38:55;10.00;91.90
33827;DHT22;20128;45.582;5.298;2024-02-23T01:41:21;10.00;91.70
33827;DHT22;20128;45.582;5.298;2024-02-23T01:43:46;9.90;91.90
33827;DHT22;20128;45.582;5.298;2024-02-23T01:46:12;9.90;92.10
33827;DHT22;20128;45.582;5.298;2024-02-23T01:48:39;9.90;92.20
33827;DHT22;20128;45.582;5.298;2024-02-23T01:51:04;9.90;92.30
33827;DHT22;20128;45.582;5.298;2024-02-23T01:53:30;9.80;92.30
33827;DHT22;20128;45.582;5.298;2024-02-23T01:55:57;9.80;92.30
33827;DHT22;20128;45.582;5.298;2024-02-23T01:58:23;9.90;92.00
33827;DHT22;20128;45.582;5.298;2024-02-23T02:00:49;9.80;91.90
33827;DHT22;20128;45.582;5.298;2024-02-23T02:03:15;9.90;91.60
33827;DHT22;20128;45.582;5.298;2024-02-23T02:05:40;9.90;91.20
33827;DHT22;20128;45.582;5.298;2024-02-23T02:08:06;9.80;91.30
33827;DHT22;20128;45.582;5.298;2024-02-23T02:10:32;9.70;91.40
33827;DHT22;20128;45.582;5.298;2024-02-23T02:13:05;9.70;91.40
33827;DHT22;20128;45.582;5.298;2024-02-23T02:15:31;9.70;91.40
33827;DHT22;20128;45.582;5.298;2024-02-23T02:17:56;9.60;91.50
33827;DHT22;20128;45.582;5.298;2024-02-23T02:20:24;9.60;91.50
33827;DHT22;20128;45.582;5.298;2024-02-23T02:22:51;9.60;91.60
33827;DHT22;20128;45.582;5.298;2024-02-23T02:25:18;9.50;91.60
33827;DHT22;20128;45.582;5.298;2024-02-23T02:27:43;9.50;91.60
33827;DHT22;20128;45.582;5.298;2024-02-23T02:30:11;9.50;91.60
33827;DHT22;20128;45.582;5.298;2024-02-23T02:32:37;9.50;91.60
33827;DHT22;20128;45.582;5.298;2024-02-23T02:35:03;9.40;91.70
33827;DHT22;20128;45.582;5.298;2024-02-23T02:37:29;9.40;91.80
33827;DHT22;20128;45.582;5.298;2024-02-23T02:39:54;9.30;91.70
33827;DHT22;20128;45.582;5.298;2024-02-23T02:42:20;9.30;91.70
33827;DHT22;20128;45.582;5.298;2024-02-23T02:44:46;9.20;91.60
33827;DHT22;20128;45.582;5.298;2024-02-23T02:47:11;9.20;91.50
33827;DHT22;20128;45.582;5.298;2024-02-23T02:49:38;9.20;91.50
33827;DHT22;20128;45.582;5.298;2024-02-23T02:52:04;9.10;91.40
33827;DHT22;20128;45.582;5.298;2024-02-23T02:54:30;9.00;91.40
33827;DHT22;20128;45.582;5.298;2024-02-23T02:56:56;8.90;91.50
33827;DHT22;20128;45.582;5.298;2024-02-23T02:59:22;8.90;91.60
33827;DHT22;20128;45.582;5.298;2024-02-23T03:01:48;8.90;91.60
33827;DHT22;20128;45.582;5.298;2024-02-23T03:04:14;8.90;91.50
33827;DHT22;20128;45.582;5.298;2024-02-23T03:06:39;8.90;91.40
33827;DHT22;20128;45.582;5.298;2024-02-23T03:09:05;8.90;91.40
33827;DHT22;20128;45.582;5.298;2024-02-23T03:11:32;8.80;91.50
33827;DHT22;20128;45.582;5.298;2024-02-23T03:13:58;8.80;91.40
33827;DHT22;20128;45.582;5.298;2024-02-23T03:16:23;8.80;91.40
33827;DHT22;20128;45.582;5.298;2024-02-23T03:18:51;8.80;91.50
33827;DHT22;20128;45.582;5.298;2024-02-23T03:21:17;8.70;91.40
33827;DHT22;20128;45.582;5.298;2024-02-23T03:23:43;8.60;91.30
33827;DHT22;20128;45.582;5.298;2024-02-23T03:26:08;8.50;91.40
33827;DHT22;20128;45.582;5.298;2024-02-23T03:28:34;8.40;91.20
33827;DHT22;20128;45.582;5.298;2024-02-23T03:31:00;8.10;91.20
33827;DHT22;20128;45.582;5.298;2024-02-23T03:33:26;8.00;91.40
33827;DHT22;20128;45.582;5.298;2024-02-23T03:35:52;7.90;91.50
33827;DHT22;20128;45.582;5.298;2024-02-23T03:38:17;7.90;91.60
33827;DHT22;20128;45.582;5.298;2024-02-23T03:40:43;8.00;91.50
33827;DHT22;20128;45.582;5.298;2024-02-23T03:43:09;8.10;91.50
33827;DHT22;20128;45.582;5.298;2024-02-23T03:45:34;8.20;91.40
33827;DHT22;20128;45.582;5.298;2024-02-23T03:48:03;8.20;91.30
33827;DHT22;20128;45.582;5.298;2024-02-23T03:50:29;8.20;91.20
33827;DHT22;20128;45.582;5.298;2024-02-23T03:52:55;8.30;91.10
33827;DHT22;20128;45.582;5.298;2024-02-23T03:55:20;8.30;90.80
33827;DHT22;20128;45.582;5.298;2024-02-23T03:57:47;8.30;90.70
33827;DHT22;20128;45.582;5.298;2024-02-23T04:00:13;8.20;90.70
33827;DHT22;20128;45.582;5.298;2024-02-23T04:02:39;8.10;90.80
33827;DHT22;20128;45.582;5.298;2024-02-23T04:05:06;8.10;91.00
33827;DHT22;20128;45.582;5.298;2024-02-23T04:07:31;8.10;90.90
33827;DHT22;20128;45.582;5.298;2024-02-23T04:09:57;8.10;91.00
33827;DHT22;20128;45.582;5.298;2024-02-23T04:12:23;8.10;91.00
33827;DHT22;20128;45.582;5.298;2024-02-23T04:14:49;8.20;90.90
33827;DHT22;20128;45.582;5.298;2024-02-23T04:17:15;8.10;90.80
33827;DHT22;20128;45.582;5.298;2024-02-23T04:19:41;8.10;91.10
33827;DHT22;20128;45.582;5.298;2024-02-23T04:22:08;8.00;90.70
33827;DHT22;20128;45.582;5.298;2024-02-23T04:24:39;8.00;90.70
33827;DHT22;20128;45.582;5.298;2024-02-23T04:27:06;8.00;90.90
33827;DHT22;20128;45.582;5.298;2024-02-23T04:29:32;8.00;91.00
33827;DHT22;20128;45.582;5.298;2024-02-23T04:31:59;8.00;91.00
33827;DHT22;20128;45.582;5.298;2024-02-23T04:34:25;8.00;91.00
33827;DHT22;20128;45.582;5.298;2024-02-23T04:36:51;8.00;90.90
33827;DHT22;20128;45.582;5.298;2024-02-23T04:39:16;8.00;90.70
33827;DHT22;20128;45.582;5.298;2024-02-23T04:41:42;8.00;90.80
33827;DHT22;20128;45.582;5.298;2024-02-23T04:44:08;7.90;90.80
33827;DHT22;20128;45.582;5.298;2024-02-23T04:46:34;7.80;90.70
33827;DHT22;20128;45.582;5.298;2024-02-23T04:49:00;7.90;90.40
33827;DHT22;20128;45.582;5.298;2024-02-23T04:51:26;7.80;90.20
33827;DHT22;20128;45.582;5.298;2024-02-23T04:53:52;7.80;90.00
33827;DHT22;20128;45.582;5.298;2024-02-23T04:56:18;7.70;90.00
33827;DHT22;20128;45.582;5.298;2024-02-23T04:58:44;7.50;89.90
33827;DHT22;20128;45.582;5.298;2024-02-23T05:01:10;7.30;90.20
33827;DHT22;20128;45.582;5.298;2024-02-23T05:03:36;7.10;90.50
33827;DHT22;20128;45.582;5.298;2024-02-23T05:06:05;7.00;90.70
33827;DHT22;20128;45.582;5.298;2024-02-23T05:08:31;6.90;90.80
33827;DHT22;20128;45.582;5.298;2024-02-23T05:10:57;7.00;90.90
33827;DHT22;20128;45.582;5.298;2024-02-23T05:13:23;6.90;90.90
33827;DHT22;20128;45.582;5.298;2024-02-23T05:15:49;6.90;90.90
33827;DHT22;20128;45.582;5.298;2024-02-23T05:18:14;7.00;91.00
33827;DHT22;20128;45.582;5.298;2024-02-23T05:20:40;7.00;91.00
33827;DHT22;20128;45.582;5.298;2024-02-23T05:23:06;7.10;90.90
33827;DHT22;20128;45.582;5.298;2024-02-23T05:25:31;7.10;90.70
33827;DHT22;20128;45.582;5.298;2024-02-23T05:27:57;7.10;90.70
33827;DHT22;20128;45.582;5.298;2024-02-23T05:30:22;7.10;90.70
33827;DHT22;20128;45.582;5.298;2024-02-23T05:32:48;7.10;90.60
33827;DHT22;20128;45.582;5.298;2024-02-23T05:35:14;7.10;90.40
33827;DHT22;20128;45.582;5.298;2024-02-23T05:37:41;7.20;90.50
33827;DHT22;20128;45.582;5.298;2024-02-23T05:40:07;7.20;90.40
33827;DHT22;20128;45.582;5.298;2024-02-23T05:42:38;7.20;90.30
33827;DHT22;20128;45.582;5.298;2024-02-23T05:45:07;7.20;90.50
33827;DHT22;20128;45.582;5.298;2024-02-23T05:47:35;7.20;90.60
33827;DHT22;20128;45.582;5.298;2024-02-23T05:50:04;7.20;90.50
33827;DHT22;20128;45.582;5.298;2024-02-23T05:52:31;7.10;90.20
33827;DHT22;20128;45.582;5.298;2024-02-23T05:54:58;7.10;90.10
33827;DHT22;20128;45.582;5.298;2024-02-23T05:57:26;6.80;90.10
33827;DHT22;20128;45.582;5.298;2024-02-23T05:59:52;6.60;90.30
33827;DHT22;20128;45.582;5.298;2024-02-23T06:02:17;6.40;90.50
33827;DHT22;20128;45.582;5.298;2024-02-23T06:04:43;6.20;90.80
33827;DHT22;20128;45.582;5.298;2024-02-23T06:07:09;6.20;91.00
33827;DHT22;20128;45.582;5.298;2024-02-23T06:09:34;6.00;91.10
33827;DHT22;20128;45.582;5.298;2024-02-23T06:12:00;6.00;91.20
33827;DHT22;20128;45.582;5.298;2024-02-23T06:14:26;5.80;91.30
33827;DHT22;20128;45.582;5.298;2024-02-23T06:16:51;5.70;91.40
33827;DHT22;20128;45.582;5.298;2024-02-23T06:19:17;5.60;91.60
33827;DHT22;20128;45.582;5.298;2024-02-23T06:21:42;5.70;91.60
33827;DHT22;20128;45.582;5.298;2024-02-23T06:24:08;5.70;91.50
33827;DHT22;20128;45.582;5.298;2024-02-23T06:26:34;5.70;91.80
33827;DHT22;20128;45.582;5.298;2024-02-23T06:29:00;5.80;91.50
33827;DHT22;20128;45.582;5.298;2024-02-23T06:31:26;5.90;91.30
33827;DHT22;20128;45.582;5.298;2024-02-23T06:33:51;5.90;91.20
33827;DHT22;20128;45.582;5.298;2024-02-23T06:36:18;6.00;91.30
33827;DHT22;20128;45.582;5.298;2024-02-23T06:38:44;5.90;91.30
33827;DHT22;20128;45.582;5.298;2024-02-23T06:41:11;6.00;91.30
33827;DHT22;20128;45.582;5.298;2024-02-23T06:43:37;5.70;91.20
33827;DHT22;20128;45.582;5.298;2024-02-23T06:46:10;5.70;91.30
33827;DHT22;20128;45.582;5.298;2024-02-23T06:48:36;5.50;91.40
33827;DHT22;20128;45.582;5.298;2024-02-23T06:51:03;5.40;91.50
33827;DHT22;20128;45.582;5.298;2024-02-23T06:53:29;5.30;91.70
33827;DHT22;20128;45.582;5.298;2024-02-23T06:55:55;5.40;91.80
33827;DHT22;20128;45.582;5.298;2024-02-23T06:58:20;5.50;91.80
33827;DHT22;20128;45.582;5.298;2024-02-23T07:00:47;5.70;91.70
33827;DHT22;20128;45.582;5.298;2024-02-23T07:03:13;5.80;91.60
33827;DHT22;20128;45.582;5.298;2024-02-23T07:05:40;5.80;91.40
33827;DHT22;20128;45.582;5.298;2024-02-23T07:08:07;5.70;91.40
33827;DHT22;20128;45.582;5.298;2024-02-23T07:10:33;5.80;91.50
33827;DHT22;20128;45.582;5.298;2024-02-23T07:12:59;5.80;91.50
33827;DHT22;20128;45.582;5.298;2024-02-23T07:15:24;5.90;91.60
33827;DHT22;20128;45.582;5.298;2024-02-23T07:17:51;5.80;91.70
33827;DHT22;20128;45.582;5.298;2024-02-23T07:20:17;5.80;91.90
33827;DHT22;20128;45.582;5.298;2024-02-23T07:22:46;5.80;92.00
33827;DHT22;20128;45.582;5.298;2024-02-23T07:25:16;6.00;91.80
33827;DHT22;20128;45.582;5.298;2024-02-23T07:27:41;6.00;91.70
33827;DHT22;20128;45.582;5.298;2024-02-23T07:30:07;6.10;91.80
33827;DHT22;20128;45.582;5.298;2024-02-23T07:32:33;6.20;91.70
33827;DHT22;20128;45.582;5.298;2024-02-23T07:34:59;6.30;91.90
33827;DHT22;20128;45.582;5.298;2024-02-23T07:37:26;6.30;91.80
33827;DHT22;20128;45.582;5.298;2024-02-23T07:39:52;6.40;91.80
33827;DHT22;20128;45.582;5.298;2024-02-23T07:42:18;6.40;91.80
33827;DHT22;20128;45.582;5.298;2024-02-23T07:44:44;6.40;91.90
33827;DHT22;20128;45.582;5.298;2024-02-23T07:47:11;6.40;91.90
33827;DHT22;20128;45.582;5.298;2024-02-23T07:49:37;6.30;91.80
33827;DHT22;20128;45.582;5.298;2024-02-23T07:52:03;6.20;91.80
33827;DHT22;20128;45.582;5.298;2024-02-23T07:54:28;6.10;91.70
33827;DHT22;20128;45.582;5.298;2024-02-23T07:56:54;6.10;91.70
33827;DHT22;20128;45.582;5.298;2024-02-23T07:59:20;6.10;91.90
33827;DHT22;20128;45.582;5.298;2024-02-23T08:01:45;6.10;92.10
33827;DHT22;20128;45.582;5.298;2024-02-23T08:04:12;6.10;92.30
33827;DHT22;20128;45.582;5.298;2024-02-23T08:06:39;6.20;92.20
33827;DHT22;20128;45.582;5.298;2024-02-23T08:09:04;6.10;92.10
33827;DHT22;20128;45.582;5.298;2024-02-23T08:11:30;6.10;92.30
33827;DHT22;20128;45.582;5.298;2024-02-23T08:13:56;6.20;92.30
33827;DHT22;20128;45.582;5.298;2024-02-23T08:16:21;6.20;92.30
33827;DHT22;20128;45.582;5.298;2024-02-23T08:18:47;6.20;92.30
33827;DHT22;20128;45.582;5.298;2024-02-23T08:21:12;6.30;92.20
33827;DHT22;20128;45.582;5.298;2024-02-23T08:23:38;6.40;92.20
33827;DHT22;20128;45.582;5.298;2024-02-23T08:26:04;6.60;92.40
33827;DHT22;20128;45.582;5.298;2024-02-23T08:28:30;6.70;92.50
33827;DHT22;20128;45.582;5.298;2024-02-23T08:30:55;6.80;92.50
33827;DHT22;20128;45.582;5.298;2024-02-23T08:33:21;6.80;92.20
33827;DHT22;20128;45.582;5.298;2024-02-23T08:35:46;6.90;92.20
33827;DHT22;20128;45.582;5.298;2024-02-23T08:38:14;7.00;92.10
33827;DHT22;20128;45.582;5.298;2024-02-23T08:40:39;7.00;92.00
33827;DHT22;20128;45.582;5.298;2024-02-23T08:43:05;7.20;92.10
33827;DHT22;20128;45.582;5.298;2024-02-23T08:45:31;7.20;92.00
33827;DHT22;20128;45.582;5.298;2024-02-23T08:47:56;7.40;91.70
33827;DHT22;20128;45.582;5.298;2024-02-23T08:50:22;7.40;91.60
33827;DHT22;20128;45.582;5.298;2024-02-23T08:52:48;7.60;91.70
33827;DHT22;20128;45.582;5.298;2024-02-23T08:55:13;7.70;91.60
33827;DHT22;20128;45.582;5.298;2024-02-23T08:57:39;7.80;91.40
33827;DHT22;20128;45.582;5.298;2024-02-23T09:00:05;7.80;91.50
33827;DHT22;20128;45.582;5.298;2024-02-23T09:02:31;7.90;91.50
33827;DHT22;20128;45.582;5.298;2024-02-23T09:05:01;8.00;91.50
33827;DHT22;20128;45.582;5.298;2024-02-23T09:07:26;8.20;91.60
33827;DHT22;20128;45.582;5.298;2024-02-23T09:09:52;8.30;91.60
33827;DHT22;20128;45.582;5.298;2024-02-23T09:12:19;8.40;91.60
33827;DHT22;20128;45.582;5.298;2024-02-23T09:14:44;8.50;91.20
33827;DHT22;20128;45.582;5.298;2024-02-23T09:17:10;8.60;91.40
33827;DHT22;20128;45.582;5.298;2024-02-23T09:19:36;8.70;91.50
33827;DHT22;20128;45.582;5.298;2024-02-23T09:22:02;8.90;91.30
33827;DHT22;20128;45.582;5.298;2024-02-23T09:24:28;9.00;91.40
33827;DHT22;20128;45.582;5.298;2024-02-23T09:26:54;9.20;91.40
33827;DHT22;20128;45.582;5.298;2024-02-23T09:29:20;9.30;90.90
33827;DHT22;20128;45.582;5.298;2024-02-23T09:31:47;9.40;90.70
33827;DHT22;20128;45.582;5.298;2024-02-23T09:34:13;9.50;90.50
33827;DHT22;20128;45.582;5.298;2024-02-23T09:36:39;9.60;90.20
33827;DHT22;20128;45.582;5.298;2024-02-23T09:39:04;9.70;90.10
33827;DHT22;20128;45.582;5.298;2024-02-23T09:41:30;9.90;87.90
33827;DHT22;20128;45.582;5.298;2024-02-23T09:44:01;10.00;86.10
33827;DHT22;20128;45.582;5.298;2024-02-23T09:46:26;10.10;86.10
33827;DHT22;20128;45.582;5.298;2024-02-23T09:48:53;10.10;86.00
33827;DHT22;20128;45.582;5.298;2024-02-23T09:51:21;10.20;84.60
33827;DHT22;20128;45.582;5.298;2024-02-23T09:53:49;10.20;84.30
33827;DHT22;20128;45.582;5.298;2024-02-23T09:56:16;10.20;83.30
33827;DHT22;20128;45.582;5.298;2024-02-23T09:58:44;10.20;82.90
33827;DHT22;20128;45.582;5.298;2024-02-23T10:01:12;10.30;82.90
33827;DHT22;20128;45.582;5.298;2024-02-23T10:03:41;10.30;82.40
33827;DHT22;20128;45.582;5.298;2024-02-23T10:06:08;10.40;80.70
33827;DHT22;20128;45.582;5.298;2024-02-23T10:08:34;10.40;80.10
33827;DHT22;20128;45.582;5.298;2024-02-23T10:11:01;10.50;79.80
33827;DHT22;20128;45.582;5.298;2024-02-23T10:13:26;10.70;78.70
33827;DHT22;20128;45.582;5.298;2024-02-23T10:15:52;10.90;78.00
33827;DHT22;20128;45.582;5.298;2024-02-23T10:18:19;11.20;76.80
33827;DHT22;20128;45.582;5.298;2024-02-23T10:20:46;11.50;75.80
33827;DHT22;20128;45.582;5.298;2024-02-23T10:23:12;11.70;75.30
33827;DHT22;20128;45.582;5.298;2024-02-23T10:25:38;11.90;75.30
33827;DHT22;20128;45.582;5.298;2024-02-23T10:28:04;12.10;75.20
33827;DHT22;20128;45.582;5.298;2024-02-23T10:30:30;12.20;74.80
33827;DHT22;20128;45.582;5.298;2024-02-23T10:32:57;12.40;74.00
33827;DHT22;20128;45.582;5.298;2024-02-23T10:35:25;12.60;70.90
33827;DHT22;20128;45.582;5.298;2024-02-23T10:37:52;12.60;68.20
33827;DHT22;20128;45.582;5.298;2024-02-23T10:40:19;12.80;71.40
33827;DHT22;20128;45.582;5.298;2024-02-23T10:42:46;12.90;69.50
33827;DHT22;20128;45.582;5.298;2024-02-23T10:45:16;13.00;68.40
33827;DHT22;20128;45.582;5.298;2024-02-23T10:47:42;13.20;67.90
33827;DHT22;20128;45.582;5.298;2024-02-23T10:50:09;13.10;64.40
33827;DHT22;20128;45.582;5.298;2024-02-23T10:52:35;13.20;65.20
33827;DHT22;20128;45.582;5.298;2024-02-23T10:55:12;13.20;67.10
33827;DHT22;20128;45.582;5.298;2024-02-23T10:57:38;13.30;66.70
33827;DHT22;20128;45.582;5.298;2024-02-23T11:00:05;13.30;65.10
33827;DHT22;20128;45.582;5.298;2024-02-23T11:02:50;13.30;64.70
33827;DHT22;20128;45.582;5.298;2024-02-23T11:05:17;13.20;62.40
33827;DHT22;20128;45.582;5.298;2024-02-23T11:07:46;13.20;63.60
33827;DHT22;20128;45.582;5.298;2024-02-23T11:10:15;13.20;64.50
33827;DHT22;20128;45.582;5.298;2024-02-23T11:12:41;13.20;64.80
33827;DHT22;20128;45.582;5.298;2024-02-23T11:15:07;13.20;62.20
33827;DHT22;20128;45.582;5.298;2024-02-23T11:17:35;13.20;62.30
33827;DHT22;20128;45.582;5.298;2024-02-23T11:20:04;13.10;61.50
33827;DHT22;20128;45.582;5.298;2024-02-23T11:22:32;13.00;63.30
33827;DHT22;20128;45.582;5.298;2024-02-23T11:25:06;13.10;62.80
33827;DHT22;20128;45.582;5.298;2024-02-23T11:27:34;13.00;63.00
33827;DHT22;20128;45.582;5.298;2024-02-23T11:30:03;12.90;63.30
33827;DHT22;20128;45.582;5.298;2024-02-23T11:32:41;12.90;63.40
33827;DHT22;20128;45.582;5.298;2024-02-23T11:35:07;12.90;64.10
33827;DHT22;20128;45.582;5.298;2024-02-23T11:37:54;12.90;64.60
33827;DHT22;20128;45.582;5.298;2024-02-23T11:40:31;12.90;65.30
33827;DHT22;20128;45.582;5.298;2024-02-23T11:42:57;13.00;65.80
33827;DHT22;20128;45.582;5.298;2024-02-23T11:45:28;13.00;64.40
33827;DHT22;20128;45.582;5.298;2024-02-23T11:47:56;13.00;64.40
33827;DHT22;20128;45.582;5.298;2024-02-23T11:50:21;12.90;65.40
33827;DHT22;20128;45.582;5.298;2024-02-23T11:52:47;13.00;64.00
33827;DHT22;20128;45.582;5.298;2024-02-23T11:55:20;13.00;64.60
33827;DHT22;20128;45.582;5.298;2024-02-23T11:57:49;13.10;61.70
33827;DHT22;20128;45.582;5.298;2024-02-23T12:00:15;13.10;62.40
33827;DHT22;20128;45.582;5.298;2024-02-23T12:02:42;13.10;61.50
33827;DHT22;20128;45.582;5.298;2024-02-23T12:05:09;13.10;63.00
33827;DHT22;20128;45.582;5.298;2024-02-23T12:07:35;13.10;61.50
33827;DHT22;20128;45.582;5.298;2024-02-23T12:10:01;13.10;62.40
33827;DHT22;20128;45.582;5.298;2024-02-23T12:12:27;13.10;62.90
33827;DHT22;20128;45.582;5.298;2024-02-23T12:14:53;13.20;64.80
33827;DHT22;20128;45.582;5.298;2024-02-23T12:17:18;13.30;65.30
33827;DHT22;20128;45.582;5.298;2024-02-23T12:19:44;13.30;65.00
33827;DHT22;20128;45.582;5.298;2024-02-23T12:22:10;13.30;64.40
33827;DHT22;20128;45.582;5.298;2024-02-23T12:24:41;13.30;64.50
33827;DHT22;20128;45.582;5.298;2024-02-23T12:27:07;13.30;64.40
33827;DHT22;20128;45.582;5.298;2024-02-23T12:29:32;13.30;63.40
33827;DHT22;20128;45.582;5.298;2024-02-23T12:32:07;13.30;64.70
33827;DHT22;20128;45.582;5.298;2024-02-23T12:34:33;13.30;64.30
33827;DHT22;20128;45.582;5.298;2024-02-23T12:37:02;13.30;64.90
33827;DHT22;20128;45.582;5.298;2024-02-23T12:39:28;13.30;65.20
33827;DHT22;20128;45.582;5.298;2024-02-23T12:41:54;13.20;63.10
33827;DHT22;20128;45.582;5.298;2024-02-23T12:44:22;13.20;63.20
33827;DHT22;20128;45.582;5.298;2024-02-23T12:46:47;13.30;65.10
33827;DHT22;20128;45.582;5.298;2024-02-23T12:49:13;13.40;65.20
33827;DHT22;20128;45.582;5.298;2024-02-23T12:51:39;13.50;66.40
33827;DHT22;20128;45.582;5.298;2024-02-23T12:54:05;13.60;64.60
33827;DHT22;20128;45.582;5.298;2024-02-23T12:56:31;13.50;63.30
33827;DHT22;20128;45.582;5.298;2024-02-23T12:58:56;13.40;64.00
33827;DHT22;20128;45.582;5.298;2024-02-23T13:01:22;13.40;63.90
33827;DHT22;20128;45.582;5.298;2024-02-23T13:03:48;13.40;65.10
33827;DHT22;20128;45.582;5.298;2024-02-23T13:06:14;13.50;65.90
33827;DHT22;20128;45.582;5.298;2024-02-23T13:08:40;13.50;65.10
33827;DHT22;20128;45.582;5.298;2024-02-23T13:11:07;13.50;65.00
33827;DHT22;20128;45.582;5.298;2024-02-23T13:13:34;13.50;63.60
33827;DHT22;20128;45.582;5.298;2024-02-23T13:16:00;13.50;64.20
33827;DHT22;20128;45.582;5.298;2024-02-23T13:18:26;13.50;64.10
33827;DHT22;20128;45.582;5.298;2024-02-23T13:20:51;13.50;64.70
33827;DHT22;20128;45.582;5.298;2024-02-23T13:23:17;13.40;62.70
33827;DHT22;20128;45.582;5.298;2024-02-23T13:25:44;13.40;63.70
33827;DHT22;20128;45.582;5.298;2024-02-23T13:28:10;13.40;63.70
33827;DHT22;20128;45.582;5.298;2024-02-23T13:30:36;13.40;63.40
33827;DHT22;20128;45.582;5.298;2024-02-23T13:33:03;13.40;63.50
33827;DHT22;20128;45.582;5.298;2024-02-23T13:35:28;13.50;63.40
33827;DHT22;20128;45.582;5.298;2024-02-23T13:37:55;13.40;64.10
33827;DHT22;20128;45.582;5.298;2024-02-23T13:40:20;13.40;64.50
33827;DHT22;20128;45.582;5.298;2024-02-23T13:42:47;13.40;64.30
33827;DHT22;20128;45.582;5.298;2024-02-23T13:45:20;13.30;64.60
33827;DHT22;20128;45.582;5.298;2024-02-23T13:48:00;13.30;64.50
33827;DHT22;20128;45.582;5.298;2024-02-23T13:50:26;13.40;64.80
33827;DHT22;20128;45.582;5.298;2024-02-23T13:52:52;13.30;65.20
33827;DHT22;20128;45.582;5.298;2024-02-23T13:55:18;13.30;65.00
33827;DHT22;20128;45.582;5.298;2024-02-23T13:57:48;13.30;63.90
33827;DHT22;20128;45.582;5.298;2024-02-23T14:00:15;13.30;64.00
33827;DHT22;20128;45.582;5.298;2024-02-23T14:02:41;13.30;64.70
33827;DHT22;20128;45.582;5.298;2024-02-23T14:05:07;13.30;64.80
33827;DHT22;20128;45.582;5.298;2024-02-23T14:07:33;13.30;64.80
33827;DHT22;20128;45.582;5.298;2024-02-23T14:09:59;13.30;65.20
33827;DHT22;20128;45.582;5.298;2024-02-23T14:12:24;13.40;64.40
33827;DHT22;20128;45.582;5.298;2024-02-23T14:14:50;13.40;64.80
33827;DHT22;20128;45.582;5.298;2024-02-23T14:17:16;13.40;65.10
33827;DHT22;20128;45.582;5.298;2024-02-23T14:19:42;13.40;64.80
33827;DHT22;20128;45.582;5.298;2024-02-23T14:22:08;13.40;65.10
33827;DHT22;20128;45.582;5.298;2024-02-23T14:24:33;13.40;65.30
33827;DHT22;20128;45.582;5.298;2024-02-23T14:26:59;13.30;65.20
33827;DHT22;20128;45.582;5.298;2024-02-23T14:29:25;13.30;65.00
33827;DHT22;20128;45.582;5.298;2024-02-23T14:31:51;13.30;65.60
33827;DHT22;20128;45.582;5.298;2024-02-23T14:34:17;13.30;66.30
33827;DHT22;20128;45.582;5.298;2024-02-23T14:36:43;13.30;67.20
33827;DHT22;20128;45.582;5.298;2024-02-23T14:39:09;13.20;66.50
33827;DHT22;20128;45.582;5.298;2024-02-23T14:41:35;13.30;67.50
33827;DHT22;20128;45.582;5.298;2024-02-23T14:44:01;13.20;67.50
33827;DHT22;20128;45.582;5.298;2024-02-23T14:46:28;13.20;67.90
33827;DHT22;20128;45.582;5.298;2024-02-23T14:48:54;13.20;68.10
33827;DHT22;20128;45.582;5.298;2024-02-23T14:51:20;13.30;68.70
33827;DHT22;20128;45.582;5.298;2024-02-23T14:53:46;13.30;68.90
33827;DHT22;20128;45.582;5.298;2024-02-23T14:56:12;13.40;70.30
33827;DHT22;20128;45.582;5.298;2024-02-23T14:58:37;13.40;70.80
33827;DHT22;20128;45.582;5.298;2024-02-23T15:01:04;13.40;68.40
33827;DHT22;20128;45.582;5.298;2024-02-23T15:03:30;13.40;66.30
33827;DHT22;20128;45.582;5.298;2024-02-23T15:05:58;13.40;67.90
33827;DHT22;20128;45.582;5.298;2024-02-23T15:08:24;13.40;67.80
33827;DHT22;20128;45.582;5.298;2024-02-23T15:10:49;13.30;65.80
33827;DHT22;20128;45.582;5.298;2024-02-23T15:13:17;13.30;68.40
33827;DHT22;20128;45.582;5.298;2024-02-23T15:15:43;13.30;70.70
33827;DHT22;20128;45.582;5.298;2024-02-23T15:18:08;13.40;71.70
33827;DHT22;20128;45.582;5.298;2024-02-23T15:20:35;13.40;71.20
33827;DHT22;20128;45.582;5.298;2024-02-23T15:23:00;13.40;70.40
33827;DHT22;20128;45.582;5.298;2024-02-23T15:25:27;13.30;70.40
33827;DHT22;20128;45.582;5.298;2024-02-23T15:27:53;13.30;71.00
33827;DHT22;20128;45.582;5.298;2024-02-23T15:30:23;13.30;71.00
33827;DHT22;20128;45.582;5.298;2024-02-23T15:32:50;13.30;71.60